createdAt,value
2023-01-28T00:02:15.509Z,48.80
2023-01-28T00:04:44.697Z,45.10
2023-01-28T00:07:13.280Z,45.30
2023-01-28T00:09:42.128Z,44.70
2023-01-28T00:12:10.970Z,42.10
2023-01-28T00:14:40.357Z,43.50
2023-01-28T00:19:39.671Z,42.10
2023-01-28T00:22:08.770Z,44.00
2023-01-28T00:24:37.557Z,39.50
2023-01-28T00:27:06.040Z,40.90
2023-01-28T00:29:35.744Z,39.10
2023-01-28T00:32:04.649Z,44.80
2023-01-28T00:34:33.321Z,40.20
2023-01-28T00:37:02.416Z,42.60
2023-01-28T00:39:32.952Z,41.50
2023-01-28T00:42:02.863Z,42.70
2023-01-28T00:44:31.753Z,36.80
2023-01-28T00:47:01.381Z,30.80
2023-01-28T00:49:29.836Z,28.00
2023-01-28T00:51:59.341Z,37.40
2023-01-28T00:54:27.929Z,38.40
2023-01-28T00:56:56.726Z,39.10
2023-01-28T00:59:25.506Z,42.00
2023-01-28T01:01:54.316Z,32.50
2023-01-28T01:04:26.937Z,34.70
2023-01-28T01:06:56.066Z,42.20
2023-01-28T01:09:24.754Z,33.50
2023-01-28T01:11:53.641Z,35.20
2023-01-28T01:14:26.345Z,33.40
2023-01-28T01:16:55.618Z,34.00
2023-01-28T01:19:24.102Z,39.40
2023-01-28T01:21:52.584Z,38.20
2023-01-28T01:24:21.334Z,37.80
2023-01-28T01:26:57.337Z,37.80
2023-01-28T01:29:26.316Z,38.30
2023-01-28T01:31:55.877Z,35.70
2023-01-28T01:34:25.332Z,39.00
2023-01-28T01:36:54.064Z,37.50
2023-01-28T01:39:22.698Z,35.60
2023-01-28T01:41:51.281Z,35.20
2023-01-28T01:44:48.171Z,29.30
2023-01-28T01:47:16.835Z,31.30
2023-01-28T01:49:45.500Z,30.20
2023-01-28T01:52:20.943Z,29.90
2023-01-28T01:54:52.909Z,34.70
2023-01-28T01:57:28.046Z,31.90
2023-01-28T01:59:56.931Z,31.20
2023-01-28T02:02:25.831Z,32.70
2023-01-28T02:04:54.609Z,36.10
2023-01-28T02:07:23.595Z,34.60
2023-01-28T02:09:52.598Z,31.50
2023-01-28T02:12:22.715Z,34.00
2023-01-28T02:15:04.401Z,33.90
2023-01-28T02:17:33.498Z,33.80
2023-01-28T02:20:08.080Z,35.40
2023-01-28T02:22:52.097Z,37.10
2023-01-28T02:25:26.489Z,35.50
2023-01-28T02:28:20.170Z,33.50
2023-01-28T02:30:52.021Z,34.20
2023-01-28T02:33:30.497Z,33.70
2023-01-28T02:35:59.075Z,33.40
2023-01-28T02:38:33.332Z,36.30
2023-01-28T02:41:10.549Z,33.70
2023-01-28T02:43:44.125Z,33.40
2023-01-28T02:46:40.454Z,33.10
2023-01-28T02:49:14.462Z,35.50
2023-01-28T02:52:01.885Z,35.80
2023-01-28T02:54:34.460Z,34.60
2023-01-28T02:57:31.104Z,32.20
2023-01-28T03:00:11.256Z,34.60
2023-01-28T03:02:43.065Z,29.10
2023-01-28T03:05:21.427Z,32.30
2023-01-28T03:07:50.013Z,29.70
2023-01-28T03:10:20.961Z,32.20
2023-01-28T03:13:10.566Z,33.90
2023-01-28T03:16:03.290Z,31.70
2023-01-28T03:19:09.641Z,34.10
2023-01-28T03:28:29.159Z,28.60
2023-01-28T03:31:18.323Z,30.30
2023-01-28T03:34:09.443Z,35.10
2023-01-28T03:36:48.781Z,32.60
2023-01-28T03:39:52.988Z,32.10
2023-01-28T03:42:22.390Z,32.60
2023-01-28T03:45:05.007Z,30.40
2023-01-28T03:47:34.510Z,37.00
2023-01-28T03:50:06.863Z,29.20
2023-01-28T03:53:17.000Z,28.90
2023-01-28T03:55:56.806Z,33.80
2023-01-28T03:58:27.412Z,31.50
2023-01-28T04:00:56.107Z,30.70
2023-01-28T04:03:24.992Z,34.30
2023-01-28T04:06:05.119Z,32.40
2023-01-28T04:08:59.625Z,32.30
2023-01-28T04:11:34.982Z,34.80
2023-01-28T04:14:05.302Z,35.50
2023-01-28T04:16:43.003Z,32.40
2023-01-28T04:19:14.760Z,29.70
2023-01-28T04:21:43.949Z,31.00
2023-01-28T04:24:15.849Z,33.60
2023-01-28T04:26:44.601Z,31.80
2023-01-28T04:29:13.490Z,35.10
2023-01-28T04:31:42.118Z,37.10
2023-01-28T04:34:40.160Z,32.80
2023-01-28T04:37:44.159Z,32.30
2023-01-28T04:40:36.505Z,37.80
2023-01-28T04:43:14.955Z,32.20
2023-01-28T04:45:56.211Z,30.90
2023-01-28T04:48:41.990Z,32.90
2023-01-28T04:51:22.134Z,33.80
2023-01-28T04:54:09.367Z,39.10
2023-01-28T04:56:38.860Z,32.90
2023-01-28T04:59:08.576Z,31.70
2023-01-28T05:01:37.628Z,32.50
2023-01-28T05:04:08.195Z,33.70
2023-01-28T05:06:40.177Z,30.90
2023-01-28T05:09:18.158Z,27.60
2023-01-28T05:11:47.877Z,38.30
2023-01-28T05:14:16.776Z,33.10
2023-01-28T05:16:48.693Z,34.50
2023-01-28T05:19:18.840Z,33.10
2023-01-28T05:21:48.461Z,33.40
2023-01-28T05:24:29.382Z,33.20
2023-01-28T05:26:58.313Z,32.00
2023-01-28T05:29:27.012Z,36.80
2023-01-28T05:31:56.517Z,30.40
2023-01-28T05:34:25.935Z,31.60
2023-01-28T05:36:56.041Z,33.50
2023-01-28T05:39:55.948Z,28.90
2023-01-28T05:42:25.859Z,28.70
2023-01-28T05:45:56.031Z,29.10
2023-01-28T05:48:31.342Z,30.90
2023-01-28T05:51:43.173Z,32.90
2023-01-28T05:54:12.828Z,28.60
2023-01-28T05:56:41.414Z,26.10
2023-01-28T05:59:11.430Z,21.90
2023-01-28T06:01:43.697Z,27.80
2023-01-28T06:04:12.309Z,31.80
2023-01-28T06:06:41.282Z,22.70
2023-01-28T06:09:10.069Z,27.00
2023-01-28T06:11:39.098Z,26.50
2023-01-28T06:14:08.455Z,26.60
2023-01-28T06:16:55.992Z,26.70
2023-01-28T06:19:34.510Z,26.60
2023-01-28T06:22:03.498Z,24.40
2023-01-28T06:24:34.230Z,21.70
2023-01-28T06:27:02.809Z,23.50
2023-01-28T06:29:31.734Z,27.40
2023-01-28T06:32:00.557Z,23.70
2023-01-28T06:34:29.793Z,27.30
2023-01-28T06:36:58.372Z,31.60
2023-01-28T06:39:28.593Z,25.50
2023-01-28T06:41:57.277Z,28.10
2023-01-28T06:44:25.869Z,24.80
2023-01-28T06:46:54.548Z,28.10
2023-01-28T06:49:23.231Z,29.80
2023-01-28T06:51:52.330Z,26.40
2023-01-28T06:54:21.057Z,23.30
2023-01-28T06:56:49.619Z,25.10
2023-01-28T06:59:18.691Z,28.60
2023-01-28T07:01:47.940Z,30.20
2023-01-28T07:04:16.471Z,23.50
2023-01-28T07:06:47.001Z,21.70
2023-01-28T07:09:15.995Z,21.90
2023-01-28T07:14:15.627Z,24.60
2023-01-28T07:16:43.998Z,21.80
2023-01-28T07:19:16.221Z,27.40
2023-01-28T07:21:45.053Z,28.40
2023-01-28T07:24:14.365Z,25.90
2023-01-28T07:26:43.177Z,30.30
2023-01-28T07:29:12.138Z,24.90
2023-01-28T07:31:41.015Z,32.90
2023-01-28T07:34:10.742Z,24.80
2023-01-28T07:36:41.568Z,28.60
2023-01-28T07:39:10.152Z,32.00
2023-01-28T07:41:38.847Z,31.90
2023-01-28T07:44:08.861Z,27.50
2023-01-28T07:46:38.902Z,22.10
2023-01-28T07:49:07.896Z,26.80
2023-01-28T07:51:37.782Z,37.20
2023-01-28T07:54:06.465Z,27.00
2023-01-28T07:56:35.355Z,23.30
2023-01-28T07:59:04.759Z,30.60
2023-01-28T08:01:35.339Z,25.20
2023-01-28T08:04:03.946Z,23.90
2023-01-28T08:06:38.393Z,26.30
2023-01-28T08:09:08.715Z,22.80
2023-01-28T08:11:40.984Z,28.70
2023-01-28T08:14:12.080Z,28.00
2023-01-28T08:16:40.427Z,27.50
2023-01-28T08:19:09.397Z,27.80
2023-01-28T08:21:37.980Z,20.50
2023-01-28T08:24:08.045Z,26.70
2023-01-28T08:26:36.889Z,24.00
2023-01-28T08:29:06.085Z,30.20
2023-01-28T08:31:34.788Z,27.90
2023-01-28T08:34:03.454Z,28.60
2023-01-28T08:36:32.653Z,25.80
2023-01-28T08:39:01.645Z,23.30
2023-01-28T08:41:30.640Z,29.00
2023-01-28T08:44:00.598Z,30.00
2023-01-28T08:46:30.259Z,30.20
2023-01-28T08:48:59.207Z,61.90
2023-01-28T08:51:29.032Z,27.60
2023-01-28T08:53:57.867Z,26.70
2023-01-28T08:56:26.771Z,31.20
2023-01-28T08:58:57.237Z,30.30
2023-01-28T09:01:27.875Z,26.50
2023-01-28T09:03:56.710Z,24.40
2023-01-28T09:06:25.689Z,22.80
2023-01-28T09:11:31.975Z,26.90
2023-01-28T09:14:01.922Z,26.20
2023-01-28T09:16:33.844Z,23.10
2023-01-28T09:19:02.946Z,20.80
2023-01-28T09:21:31.726Z,27.30
2023-01-28T09:24:02.187Z,23.90
2023-01-28T09:26:34.745Z,31.40
2023-01-28T09:29:03.413Z,27.90
2023-01-28T09:31:32.938Z,24.70
2023-01-28T09:34:04.477Z,24.80
2023-01-28T09:36:36.779Z,27.50
2023-01-28T09:39:05.734Z,24.60
2023-01-28T09:41:59.217Z,26.30
2023-01-28T09:44:56.559Z,19.80
2023-01-28T09:47:48.494Z,24.40
2023-01-28T09:50:26.456Z,29.00
2023-01-28T09:52:56.994Z,30.20
2023-01-28T09:55:37.908Z,22.30
2023-01-28T10:00:56.665Z,37.10
2023-01-28T10:03:44.425Z,35.50
2023-01-28T10:06:24.554Z,30.20
2023-01-28T10:08:59.393Z,26.30
2023-01-28T10:11:50.836Z,29.60
2023-01-28T10:14:25.734Z,22.60
2023-01-28T10:17:09.841Z,30.20
2023-01-28T10:19:44.635Z,26.30
2023-01-28T10:22:15.446Z,25.70
2023-01-28T10:24:47.515Z,20.70
2023-01-28T10:27:20.806Z,21.40
2023-01-28T10:29:51.138Z,22.60
2023-01-28T10:32:35.625Z,23.60
2023-01-28T10:35:05.048Z,31.20
2023-01-28T10:37:37.457Z,27.20
2023-01-28T10:40:19.109Z,27.60
2023-01-28T10:42:48.860Z,25.10
2023-01-28T10:45:25.708Z,29.50
2023-01-28T10:48:09.075Z,26.40
2023-01-28T10:50:37.956Z,26.90
2023-01-28T10:53:06.658Z,28.80
2023-01-28T10:55:57.732Z,23.80
2023-01-28T10:58:28.282Z,25.90
2023-01-28T11:01:07.325Z,24.10
2023-01-28T11:03:56.511Z,29.70
2023-01-28T11:06:31.760Z,24.90
2023-01-28T11:09:01.653Z,29.10
2023-01-28T11:11:31.073Z,19.30
2023-01-28T11:14:01.588Z,24.40
2023-01-28T11:16:33.318Z,23.60
2023-01-28T11:19:05.244Z,24.80
2023-01-28T11:21:38.400Z,23.10
2023-01-28T11:24:14.593Z,24.80
2023-01-28T11:26:45.342Z,23.20
2023-01-28T11:29:35.650Z,21.70
2023-01-28T11:32:04.145Z,22.30
2023-01-28T11:34:35.393Z,22.30
2023-01-28T11:37:16.642Z,22.10
2023-01-28T11:39:47.474Z,19.90
2023-01-28T11:42:18.645Z,18.40
2023-01-28T11:44:50.136Z,17.80
2023-01-28T11:47:34.257Z,22.70
2023-01-28T11:50:23.513Z,19.80
2023-01-28T11:53:07.269Z,20.20
2023-01-28T11:55:48.537Z,62.00
2023-01-28T11:58:49.475Z,28.30
2023-01-28T12:01:18.157Z,30.70
2023-01-28T12:04:16.648Z,23.00
2023-01-28T12:07:01.709Z,55.20
2023-01-28T12:09:40.636Z,42.70
2023-01-28T12:12:21.627Z,19.80
2023-01-28T12:14:52.139Z,17.50
2023-01-28T12:17:30.149Z,23.40
2023-01-28T12:20:05.910Z,16.70
2023-01-28T12:22:45.752Z,16.10
2023-01-28T12:25:50.274Z,17.50
2023-01-28T12:28:22.401Z,20.80
2023-01-28T12:31:04.319Z,18.30
2023-01-28T12:33:56.100Z,20.70
2023-01-28T12:36:43.228Z,16.00
2023-01-28T12:39:42.289Z,18.60
2023-01-28T12:42:35.387Z,16.90
2023-01-28T12:45:23.183Z,19.50
2023-01-28T12:48:00.481Z,17.20
2023-01-28T12:50:45.696Z,16.60
2023-01-28T12:53:40.098Z,19.90
2023-01-28T12:56:19.144Z,18.20
2023-01-28T12:59:07.510Z,19.80
2023-01-28T13:02:13.494Z,17.70
2023-01-28T13:04:48.499Z,18.30
2023-01-28T13:07:21.875Z,20.10
2023-01-28T13:10:06.228Z,21.30
2023-01-28T13:12:35.116Z,17.10
2023-01-28T13:15:31.048Z,17.70
2023-01-28T13:18:04.764Z,16.30
2023-01-28T13:20:38.045Z,19.80
2023-01-28T13:23:22.067Z,12.60
2023-01-28T13:25:54.787Z,16.80
2023-01-28T13:28:29.312Z,16.80
2023-01-28T13:31:05.881Z,17.50
2023-01-28T13:33:39.767Z,16.30
2023-01-28T13:36:32.011Z,16.50
2023-01-28T13:39:19.879Z,13.00
2023-01-28T13:41:56.307Z,16.80
2023-01-28T13:44:34.005Z,17.90
2023-01-28T13:47:05.982Z,16.70
2023-01-28T13:49:34.802Z,18.50
2023-01-28T13:52:17.180Z,15.00
2023-01-28T13:55:03.469Z,13.60
2023-01-28T13:58:00.961Z,15.30
2023-01-28T14:00:56.150Z,17.30
2023-01-28T14:03:29.533Z,14.40
2023-01-28T14:06:08.263Z,13.90
2023-01-28T14:09:20.063Z,17.20
2023-01-28T14:12:28.536Z,13.90
2023-01-28T14:15:34.643Z,14.80
2023-01-28T14:18:07.872Z,16.00
2023-01-28T14:20:42.887Z,16.20
2023-01-28T14:23:19.415Z,15.80
2023-01-28T14:26:00.118Z,14.00
2023-01-28T14:28:47.205Z,16.70
2023-01-28T14:31:34.264Z,20.00
2023-01-28T14:34:32.714Z,13.60
2023-01-28T14:37:09.185Z,16.30
2023-01-28T14:39:59.565Z,15.60
2023-01-28T14:42:30.606Z,15.80
2023-01-28T14:45:20.695Z,15.70
2023-01-28T14:51:19.223Z,14.40
2023-01-28T14:54:07.544Z,14.20
2023-01-28T14:56:56.332Z,15.00
2023-01-28T14:59:51.809Z,12.80
2023-01-28T15:02:30.761Z,13.60
2023-01-28T15:05:10.819Z,18.30
2023-01-28T15:07:39.988Z,15.20
2023-01-28T15:10:26.582Z,19.40
2023-01-28T15:13:00.608Z,14.70
2023-01-28T15:15:40.619Z,13.30
2023-01-28T15:18:27.595Z,14.30
2023-01-28T15:20:56.582Z,19.80
2023-01-28T15:23:33.375Z,13.80
2023-01-28T15:26:30.123Z,18.20
2023-01-28T15:28:59.555Z,15.40
2023-01-28T15:31:30.834Z,14.70
2023-01-28T15:33:59.413Z,15.80
2023-01-28T15:36:28.473Z,18.70
2023-01-28T15:38:58.874Z,17.10
2023-01-28T15:41:30.850Z,15.70
2023-01-28T15:43:59.275Z,14.80
2023-01-28T15:49:03.505Z,17.70
2023-01-28T15:51:34.115Z,13.50
2023-01-28T15:54:08.075Z,15.00
2023-01-28T15:56:36.948Z,20.80
2023-01-28T15:59:18.322Z,19.30
2023-01-28T16:01:49.365Z,17.10
2023-01-28T16:04:29.628Z,18.00
2023-01-28T16:06:58.747Z,13.90
2023-01-28T16:09:29.138Z,17.70
2023-01-28T16:14:43.823Z,18.90
2023-01-28T16:17:17.518Z,17.20
2023-01-28T16:19:51.306Z,14.70
2023-01-28T16:22:45.024Z,15.80
2023-01-28T16:25:31.599Z,16.90
2023-01-28T16:28:01.309Z,17.00
2023-01-28T16:30:30.315Z,17.80
2023-01-28T16:33:00.643Z,19.30
2023-01-28T16:35:42.549Z,15.60
2023-01-28T16:38:19.092Z,16.30
2023-01-28T16:40:53.818Z,16.10
2023-01-28T16:43:22.662Z,19.10
2023-01-28T16:45:51.395Z,20.70
2023-01-28T16:48:23.360Z,16.70
2023-01-28T16:53:23.543Z,16.90
2023-01-28T16:55:54.774Z,17.00
2023-01-28T16:58:25.204Z,21.00
2023-01-28T17:00:54.127Z,18.40
2023-01-28T17:03:23.637Z,19.10
2023-01-28T17:05:52.387Z,17.10
2023-01-28T17:08:23.913Z,22.30
2023-01-28T17:10:56.530Z,18.70
2023-01-28T17:13:25.431Z,23.90
2023-01-28T17:15:54.354Z,19.10
2023-01-28T17:18:23.678Z,17.30
2023-01-28T17:21:30.238Z,18.80
2023-01-28T17:24:01.190Z,21.50
2023-01-28T17:26:30.389Z,19.10
2023-01-28T17:28:59.976Z,18.20
2023-01-28T17:31:28.787Z,16.60
2023-01-28T17:34:01.366Z,19.70
2023-01-28T17:36:30.273Z,19.10
2023-01-28T17:38:59.331Z,15.50
2023-01-28T17:41:28.219Z,15.80
2023-01-28T17:43:58.749Z,17.10
2023-01-28T17:46:29.610Z,16.80
2023-01-28T17:48:58.197Z,15.60
2023-01-28T17:51:27.744Z,23.50
2023-01-28T17:53:56.711Z,22.00
2023-01-28T17:56:27.557Z,20.60
2023-01-28T18:01:28.705Z,14.30
2023-01-28T18:03:58.679Z,17.20
2023-01-28T18:06:36.094Z,17.90
2023-01-28T18:09:05.283Z,22.20
2023-01-28T18:11:34.179Z,21.00
2023-01-28T18:14:03.725Z,21.10
2023-01-28T18:16:32.651Z,17.70
2023-01-28T18:19:01.447Z,17.50
2023-01-28T18:21:51.830Z,18.10
2023-01-28T18:24:26.539Z,21.40
2023-01-28T18:27:00.125Z,19.90
2023-01-28T18:29:29.979Z,20.60
2023-01-28T18:31:59.909Z,20.70
2023-01-28T18:34:32.027Z,18.10
2023-01-28T18:37:00.943Z,17.80
2023-01-28T18:39:31.475Z,16.40
2023-01-28T18:42:00.385Z,17.80
2023-01-28T18:44:33.570Z,18.80
2023-01-28T18:47:05.434Z,18.80
2023-01-28T18:49:35.130Z,19.10
2023-01-28T18:52:03.812Z,16.40
2023-01-28T18:54:33.917Z,17.00
2023-01-28T18:57:03.228Z,15.40
2023-01-28T18:59:32.247Z,20.50
2023-01-28T19:02:01.597Z,22.80
2023-01-28T19:04:30.804Z,19.90
2023-01-28T19:06:59.838Z,18.90
2023-01-28T19:09:31.475Z,19.50
2023-01-28T19:12:00.717Z,18.90
2023-01-28T19:14:31.028Z,17.00
2023-01-28T19:17:01.772Z,19.60
2023-01-28T19:19:32.356Z,17.50
2023-01-28T19:22:01.778Z,18.20
2023-01-28T19:24:32.565Z,19.80
2023-01-28T19:27:01.897Z,18.60
2023-01-28T19:32:00.749Z,21.30
2023-01-28T19:34:30.822Z,19.80
2023-01-28T19:36:59.505Z,18.30
2023-01-28T19:39:32.138Z,19.30
2023-01-28T19:42:02.602Z,16.50
2023-01-28T19:44:33.241Z,17.20
2023-01-28T19:47:03.629Z,18.80
2023-01-28T19:49:35.447Z,17.40
2023-01-28T19:52:05.340Z,20.50
2023-01-28T19:54:34.560Z,17.90
2023-01-28T19:57:06.396Z,20.00
2023-01-28T19:59:34.981Z,15.20
2023-01-28T20:04:35.221Z,16.80
2023-01-28T20:07:05.558Z,17.50
2023-01-28T20:09:36.406Z,17.60
2023-01-28T20:14:34.594Z,14.10
2023-01-28T20:17:03.175Z,15.90
2023-01-28T20:19:35.113Z,15.60
2023-01-28T20:22:03.816Z,15.70
2023-01-28T20:24:34.149Z,17.00
2023-01-28T20:27:02.762Z,18.80
2023-01-28T20:32:16.200Z,16.20
2023-01-28T20:34:46.895Z,15.90
2023-01-28T20:37:15.779Z,16.10
2023-01-28T20:39:44.363Z,17.80
2023-01-28T20:42:14.278Z,13.10
2023-01-28T20:44:42.657Z,12.20
2023-01-28T20:47:13.609Z,22.20
2023-01-28T20:49:43.113Z,13.20
2023-01-28T20:52:12.407Z,14.40
2023-01-28T20:54:42.152Z,13.20
2023-01-28T20:57:10.618Z,14.20
2023-01-28T20:59:39.787Z,17.40
2023-01-28T21:02:10.278Z,12.00
2023-01-28T21:07:10.046Z,12.20
2023-01-28T21:09:39.804Z,14.20
2023-01-28T21:12:11.109Z,11.80
2023-01-28T21:14:42.958Z,11.20
2023-01-28T21:17:11.982Z,11.40
2023-01-28T21:19:41.563Z,11.80
2023-01-28T21:22:11.527Z,14.30
2023-01-28T21:24:44.187Z,15.30
2023-01-28T21:27:13.453Z,12.90
2023-01-28T21:29:43.096Z,15.30
2023-01-28T21:32:14.515Z,14.70
2023-01-28T21:34:43.724Z,15.00
2023-01-28T21:37:12.508Z,12.60
2023-01-28T21:39:41.336Z,12.00
2023-01-28T21:42:10.483Z,16.40
2023-01-28T21:44:39.012Z,12.70
2023-01-28T21:47:08.365Z,12.50
2023-01-28T21:52:09.426Z,12.20
2023-01-28T21:54:38.313Z,11.80
2023-01-28T21:57:07.926Z,10.60
2023-01-28T21:59:38.860Z,11.80
2023-01-28T22:04:42.206Z,9.50
2023-01-28T22:07:12.190Z,13.00
2023-01-28T22:09:41.080Z,12.10
2023-01-28T22:12:09.976Z,13.00
2023-01-28T22:14:39.833Z,14.90
2023-01-28T22:17:09.541Z,11.90
2023-01-28T22:19:38.996Z,10.30
2023-01-28T22:22:07.366Z,13.50
2023-01-28T22:24:35.985Z,10.90
2023-01-28T22:27:04.638Z,11.40
2023-01-28T22:29:33.535Z,13.00
2023-01-28T22:32:05.039Z,14.20
2023-01-28T22:34:33.774Z,12.70
2023-01-28T22:37:02.353Z,10.60
2023-01-28T22:39:31.036Z,12.80
2023-01-28T22:42:00.648Z,11.30
2023-01-28T22:44:29.125Z,13.00
2023-01-28T22:46:58.018Z,12.60
2023-01-28T22:49:27.014Z,8.80
2023-01-28T22:51:56.418Z,10.70
2023-01-28T22:54:25.587Z,9.60
2023-01-28T22:56:54.086Z,14.40
2023-01-28T22:59:22.669Z,14.00
2023-01-28T23:01:51.495Z,13.60
2023-01-28T23:04:20.347Z,14.00
2023-01-28T23:06:50.467Z,14.60
2023-01-28T23:09:19.363Z,11.30
2023-01-28T23:11:48.147Z,11.50
2023-01-28T23:14:35.368Z,11.10
2023-01-28T23:17:22.825Z,15.90
2023-01-28T23:20:10.316Z,10.20
2023-01-28T23:22:57.642Z,11.70
2023-01-28T23:25:26.120Z,10.10
2023-01-28T23:27:54.498Z,9.60
2023-01-28T23:30:25.951Z,9.90
2023-01-28T23:32:59.450Z,10.10
2023-01-28T23:35:28.343Z,10.80
2023-01-28T23:37:56.920Z,9.80
2023-01-28T23:40:27.393Z,11.70
2023-01-28T23:42:56.028Z,10.80
2023-01-28T23:45:25.648Z,14.20
2023-01-28T23:47:54.640Z,13.00
2023-01-28T23:50:23.246Z,13.10
2023-01-28T23:52:55.186Z,11.70
2023-01-28T23:55:23.862Z,9.50
2023-01-28T23:57:52.548Z,9.20
